sensor_id;sensor_type;location;lat;lon;timestamp;P1;durP1;ratioP1;P2;durP2;ratioP2
84757;SDS011;74981;52.476;16.656;2024-03-25T00:03:10;7.30;;;4.00;;
84757;SDS011;74981;52.476;16.656;2024-03-25T00:08:14;9.20;;;6.20;;
84757;SDS011;74981;52.476;16.656;2024-03-25T00:13:18;8.50;;;3.90;;
84757;SDS011;74981;52.476;16.656;2024-03-25T00:18:22;8.40;;;4.80;;
84757;SDS011;74981;52.476;16.656;2024-03-25T00:23:26;7.50;;;3.70;;
84757;SDS011;74981;52.476;16.656;2024-03-25T00:28:30;7.40;;;4.30;;
84757;SDS011;74981;52.476;16.656;2024-03-25T00:33:34;7.00;;;6.20;;
84757;SDS011;74981;52.476;16.656;2024-03-25T00:38:38;8.70;;;5.70;;
84757;SDS011;74981;52.476;16.656;2024-03-25T00:43:42;11.50;;;5.70;;
84757;SDS011;74981;52.476;16.656;2024-03-25T00:48:46;9.40;;;5.50;;
84757;SDS011;74981;52.476;16.656;2024-03-25T00:53:50;8.20;;;5.30;;
84757;SDS011;74981;52.476;16.656;2024-03-25T00:58:53;8.00;;;5.30;;
84757;SDS011;74981;52.476;16.656;2024-03-25T01:03:57;8.30;;;4.90;;
84757;SDS011;74981;52.476;16.656;2024-03-25T01:09:01;7.70;;;4.90;;
84757;SDS011;74981;52.476;16.656;2024-03-25T01:14:05;8.80;;;5.60;;
84757;SDS011;74981;52.476;16.656;2024-03-25T01:19:09;6.80;;;4.00;;
84757;SDS011;74981;52.476;16.656;2024-03-25T01:24:13;6.90;;;4.60;;
84757;SDS011;74981;52.476;16.656;2024-03-25T01:29:17;10.70;;;5.80;;
84757;SDS011;74981;52.476;16.656;2024-03-25T01:34:21;6.90;;;4.20;;
84757;SDS011;74981;52.476;16.656;2024-03-25T01:39:25;10.10;;;6.80;;
84757;SDS011;74981;52.476;16.656;2024-03-25T01:44:29;7.30;;;3.70;;
84757;SDS011;74981;52.476;16.656;2024-03-25T01:49:33;7.10;;;4.20;;
84757;SDS011;74981;52.476;16.656;2024-03-25T01:54:37;8.80;;;3.60;;
84757;SDS011;74981;52.476;16.656;2024-03-25T01:59:41;7.30;;;3.80;;
84757;SDS011;74981;52.476;16.656;2024-03-25T02:04:45;6.90;;;3.00;;
84757;SDS011;74981;52.476;16.656;2024-03-25T02:09:49;7.80;;;5.20;;
84757;SDS011;74981;52.476;16.656;2024-03-25T02:14:54;6.70;;;4.30;;
84757;SDS011;74981;52.476;16.656;2024-03-25T02:19:58;7.30;;;5.60;;
84757;SDS011;74981;52.476;16.656;2024-03-25T02:25:02;6.80;;;5.90;;
84757;SDS011;74981;52.476;16.656;2024-03-25T02:30:11;8.00;;;5.20;;
84757;SDS011;74981;52.476;16.656;2024-03-25T02:35:16;6.50;;;5.80;;
84757;SDS011;74981;52.476;16.656;2024-03-25T02:40:20;7.50;;;4.90;;
84757;SDS011;74981;52.476;16.656;2024-03-25T02:50:28;6.70;;;3.90;;
84757;SDS011;74981;52.476;16.656;2024-03-25T02:55:32;9.40;;;6.20;;
84757;SDS011;74981;52.476;16.656;2024-03-25T03:00:36;6.40;;;3.80;;
84757;SDS011;74981;52.476;16.656;2024-03-25T03:05:40;7.00;;;5.30;;
84757;SDS011;74981;52.476;16.656;2024-03-25T03:10:44;9.30;;;6.00;;
84757;SDS011;74981;52.476;16.656;2024-03-25T03:15:48;6.10;;;3.70;;
84757;SDS011;74981;52.476;16.656;2024-03-25T03:20:52;8.40;;;5.10;;
84757;SDS011;74981;52.476;16.656;2024-03-25T03:25:56;8.60;;;6.40;;
84757;SDS011;74981;52.476;16.656;2024-03-25T03:31:00;10.50;;;4.90;;
84757;SDS011;74981;52.476;16.656;2024-03-25T03:36:04;7.10;;;4.00;;
84757;SDS011;74981;52.476;16.656;2024-03-25T03:41:09;8.10;;;5.50;;
84757;SDS011;74981;52.476;16.656;2024-03-25T03:46:13;9.30;;;4.40;;
84757;SDS011;74981;52.476;16.656;2024-03-25T03:51:17;6.90;;;4.10;;
84757;SDS011;74981;52.476;16.656;2024-03-25T03:56:21;6.50;;;4.20;;
84757;SDS011;74981;52.476;16.656;2024-03-25T04:01:26;8.10;;;5.10;;
84757;SDS011;74981;52.476;16.656;2024-03-25T04:06:30;7.80;;;4.80;;
84757;SDS011;74981;52.476;16.656;2024-03-25T04:11:36;8.40;;;4.40;;
84757;SDS011;74981;52.476;16.656;2024-03-25T04:16:40;7.00;;;4.40;;
84757;SDS011;74981;52.476;16.656;2024-03-25T04:21:44;6.80;;;4.20;;
84757;SDS011;74981;52.476;16.656;2024-03-25T04:26:48;5.30;;;3.10;;
84757;SDS011;74981;52.476;16.656;2024-03-25T04:31:52;5.80;;;4.60;;
84757;SDS011;74981;52.476;16.656;2024-03-25T04:36:56;5.40;;;3.30;;
84757;SDS011;74981;52.476;16.656;2024-03-25T04:42:00;5.10;;;2.80;;
84757;SDS011;74981;52.476;16.656;2024-03-25T04:47:04;5.50;;;4.60;;
84757;SDS011;74981;52.476;16.656;2024-03-25T04:52:08;5.00;;;3.10;;
84757;SDS011;74981;52.476;16.656;2024-03-25T04:57:12;10.00;;;4.50;;
84757;SDS011;74981;52.476;16.656;2024-03-25T05:02:17;5.60;;;3.30;;
84757;SDS011;74981;52.476;16.656;2024-03-25T05:07:20;5.60;;;2.80;;
84757;SDS011;74981;52.476;16.656;2024-03-25T05:12:24;5.00;;;2.50;;
84757;SDS011;74981;52.476;16.656;2024-03-25T05:17:28;4.50;;;2.90;;
84757;SDS011;74981;52.476;16.656;2024-03-25T05:22:32;5.90;;;4.30;;
84757;SDS011;74981;52.476;16.656;2024-03-25T05:27:36;5.20;;;3.40;;
84757;SDS011;74981;52.476;16.656;2024-03-25T05:37:43;8.80;;;5.00;;
84757;SDS011;74981;52.476;16.656;2024-03-25T05:42:47;9.20;;;6.30;;
84757;SDS011;74981;52.476;16.656;2024-03-25T05:47:51;8.10;;;5.30;;
84757;SDS011;74981;52.476;16.656;2024-03-25T05:52:55;9.40;;;5.80;;
84757;SDS011;74981;52.476;16.656;2024-03-25T05:57:59;9.20;;;5.90;;
84757;SDS011;74981;52.476;16.656;2024-03-25T06:03:03;14.10;;;8.50;;
84757;SDS011;74981;52.476;16.656;2024-03-25T06:08:08;14.00;;;9.00;;
84757;SDS011;74981;52.476;16.656;2024-03-25T06:13:12;13.30;;;7.40;;
84757;SDS011;74981;52.476;16.656;2024-03-25T06:18:16;21.80;;;12.50;;
84757;SDS011;74981;52.476;16.656;2024-03-25T06:23:24;17.70;;;11.10;;
84757;SDS011;74981;52.476;16.656;2024-03-25T06:28:29;14.40;;;8.20;;
84757;SDS011;74981;52.476;16.656;2024-03-25T06:33:34;10.30;;;6.90;;
84757;SDS011;74981;52.476;16.656;2024-03-25T06:38:38;11.10;;;6.30;;
84757;SDS011;74981;52.476;16.656;2024-03-25T06:43:42;13.80;;;8.60;;
84757;SDS011;74981;52.476;16.656;2024-03-25T06:48:46;12.40;;;7.00;;
84757;SDS011;74981;52.476;16.656;2024-03-25T06:53:50;11.70;;;7.10;;
84757;SDS011;74981;52.476;16.656;2024-03-25T06:58:54;10.00;;;6.10;;
84757;SDS011;74981;52.476;16.656;2024-03-25T07:03:58;13.40;;;7.20;;
84757;SDS011;74981;52.476;16.656;2024-03-25T07:09:02;11.00;;;6.60;;
84757;SDS011;74981;52.476;16.656;2024-03-25T07:14:06;12.70;;;7.80;;
84757;SDS011;74981;52.476;16.656;2024-03-25T07:19:10;11.70;;;6.40;;
84757;SDS011;74981;52.476;16.656;2024-03-25T07:24:14;11.90;;;8.30;;
84757;SDS011;74981;52.476;16.656;2024-03-25T07:29:18;11.60;;;8.20;;
84757;SDS011;74981;52.476;16.656;2024-03-25T07:34:23;10.70;;;5.60;;
84757;SDS011;74981;52.476;16.656;2024-03-25T07:39:27;9.50;;;5.80;;
84757;SDS011;74981;52.476;16.656;2024-03-25T07:44:31;10.60;;;5.70;;
84757;SDS011;74981;52.476;16.656;2024-03-25T07:49:35;7.80;;;4.70;;
84757;SDS011;74981;52.476;16.656;2024-03-25T07:54:39;8.00;;;6.20;;
84757;SDS011;74981;52.476;16.656;2024-03-25T07:59:43;7.80;;;4.00;;
84757;SDS011;74981;52.476;16.656;2024-03-25T08:04:47;8.10;;;4.50;;
84757;SDS011;74981;52.476;16.656;2024-03-25T08:09:51;9.30;;;4.30;;
84757;SDS011;74981;52.476;16.656;2024-03-25T08:14:55;8.50;;;4.90;;
84757;SDS011;74981;52.476;16.656;2024-03-25T08:19:59;7.30;;;4.40;;
84757;SDS011;74981;52.476;16.656;2024-03-25T08:25:03;8.20;;;4.70;;
84757;SDS011;74981;52.476;16.656;2024-03-25T08:30:09;10.60;;;6.70;;
84757;SDS011;74981;52.476;16.656;2024-03-25T08:35:14;11.80;;;7.30;;
84757;SDS011;74981;52.476;16.656;2024-03-25T08:40:18;13.00;;;6.40;;
84757;SDS011;74981;52.476;16.656;2024-03-25T08:45:22;11.60;;;6.50;;
84757;SDS011;74981;52.476;16.656;2024-03-25T08:50:26;14.70;;;10.00;;
84757;SDS011;74981;52.476;16.656;2024-03-25T08:55:30;15.70;;;11.10;;
84757;SDS011;74981;52.476;16.656;2024-03-25T09:00:35;19.00;;;9.40;;
84757;SDS011;74981;52.476;16.656;2024-03-25T09:05:38;9.90;;;6.90;;
84757;SDS011;74981;52.476;16.656;2024-03-25T09:10:44;12.40;;;8.40;;
84757;SDS011;74981;52.476;16.656;2024-03-25T09:15:48;11.60;;;7.40;;
84757;SDS011;74981;52.476;16.656;2024-03-25T09:20:52;11.90;;;8.40;;
84757;SDS011;74981;52.476;16.656;2024-03-25T09:25:56;12.40;;;6.90;;
84757;SDS011;74981;52.476;16.656;2024-03-25T09:31:00;12.50;;;8.00;;
84757;SDS011;74981;52.476;16.656;2024-03-25T09:36:05;12.80;;;7.80;;
84757;SDS011;74981;52.476;16.656;2024-03-25T09:41:09;11.20;;;7.90;;
84757;SDS011;74981;52.476;16.656;2024-03-25T09:46:13;12.20;;;7.40;;
84757;SDS011;74981;52.476;16.656;2024-03-25T09:51:17;10.70;;;7.10;;
84757;SDS011;74981;52.476;16.656;2024-03-25T09:56:21;9.30;;;4.70;;
84757;SDS011;74981;52.476;16.656;2024-03-25T10:01:25;9.10;;;7.10;;
84757;SDS011;74981;52.476;16.656;2024-03-25T10:06:29;6.00;;;3.90;;
84757;SDS011;74981;52.476;16.656;2024-03-25T10:11:33;7.50;;;4.70;;
84757;SDS011;74981;52.476;16.656;2024-03-25T10:16:38;5.60;;;3.50;;
84757;SDS011;74981;52.476;16.656;2024-03-25T10:21:42;5.60;;;3.60;;
84757;SDS011;74981;52.476;16.656;2024-03-25T10:26:48;4.70;;;2.90;;
84757;SDS011;74981;52.476;16.656;2024-03-25T10:31:59;4.70;;;3.00;;
84757;SDS011;74981;52.476;16.656;2024-03-25T10:37:04;5.00;;;3.80;;
84757;SDS011;74981;52.476;16.656;2024-03-25T10:42:11;5.80;;;3.30;;
84757;SDS011;74981;52.476;16.656;2024-03-25T10:47:21;5.10;;;3.00;;
84757;SDS011;74981;52.476;16.656;2024-03-25T10:52:30;4.70;;;2.90;;
84757;SDS011;74981;52.476;16.656;2024-03-25T10:57:34;6.30;;;3.80;;
84757;SDS011;74981;52.476;16.656;2024-03-25T11:02:39;4.90;;;2.60;;
84757;SDS011;74981;52.476;16.656;2024-03-25T11:07:44;4.40;;;2.70;;
84757;SDS011;74981;52.476;16.656;2024-03-25T11:12:49;5.80;;;3.60;;
84757;SDS011;74981;52.476;16.656;2024-03-25T11:17:53;4.80;;;3.40;;
84757;SDS011;74981;52.476;16.656;2024-03-25T11:23:07;4.60;;;4.10;;
84757;SDS011;74981;52.476;16.656;2024-03-25T11:28:12;4.80;;;2.90;;
84757;SDS011;74981;52.476;16.656;2024-03-25T11:33:16;3.90;;;2.10;;
84757;SDS011;74981;52.476;16.656;2024-03-25T11:38:20;5.60;;;3.10;;
84757;SDS011;74981;52.476;16.656;2024-03-25T11:43:24;4.90;;;2.80;;
84757;SDS011;74981;52.476;16.656;2024-03-25T11:48:30;4.50;;;3.20;;
84757;SDS011;74981;52.476;16.656;2024-03-25T11:53:34;4.80;;;2.50;;
84757;SDS011;74981;52.476;16.656;2024-03-25T11:58:38;5.10;;;3.00;;
84757;SDS011;74981;52.476;16.656;2024-03-25T12:08:45;6.30;;;4.00;;
84757;SDS011;74981;52.476;16.656;2024-03-25T12:13:49;4.50;;;2.50;;
84757;SDS011;74981;52.476;16.656;2024-03-25T12:23:56;4.50;;;2.30;;
84757;SDS011;74981;52.476;16.656;2024-03-25T12:29:01;3.70;;;2.10;;
84757;SDS011;74981;52.476;16.656;2024-03-25T12:39:17;4.10;;;1.90;;
84757;SDS011;74981;52.476;16.656;2024-03-25T12:44:22;4.10;;;2.10;;
84757;SDS011;74981;52.476;16.656;2024-03-25T12:49:26;5.50;;;3.30;;
84757;SDS011;74981;52.476;16.656;2024-03-25T12:54:29;5.90;;;3.50;;
84757;SDS011;74981;52.476;16.656;2024-03-25T12:59:33;4.10;;;2.10;;
84757;SDS011;74981;52.476;16.656;2024-03-25T13:04:37;3.70;;;1.90;;
84757;SDS011;74981;52.476;16.656;2024-03-25T13:14:44;3.70;;;2.10;;
84757;SDS011;74981;52.476;16.656;2024-03-25T13:19:48;4.00;;;2.60;;
84757;SDS011;74981;52.476;16.656;2024-03-25T13:24:53;3.50;;;2.00;;
84757;SDS011;74981;52.476;16.656;2024-03-25T13:29:57;6.30;;;3.10;;
84757;SDS011;74981;52.476;16.656;2024-03-25T13:35:01;4.20;;;2.50;;
84757;SDS011;74981;52.476;16.656;2024-03-25T13:40:05;4.40;;;2.30;;
84757;SDS011;74981;52.476;16.656;2024-03-25T13:45:10;4.10;;;2.30;;
84757;SDS011;74981;52.476;16.656;2024-03-25T13:50:14;5.50;;;3.40;;
84757;SDS011;74981;52.476;16.656;2024-03-25T13:55:18;4.60;;;3.00;;
84757;SDS011;74981;52.476;16.656;2024-03-25T14:00:23;5.60;;;4.60;;
84757;SDS011;74981;52.476;16.656;2024-03-25T14:05:27;4.20;;;2.30;;
84757;SDS011;74981;52.476;16.656;2024-03-25T14:10:31;4.20;;;2.50;;
84757;SDS011;74981;52.476;16.656;2024-03-25T14:15:35;5.00;;;3.00;;
84757;SDS011;74981;52.476;16.656;2024-03-25T14:20:39;5.50;;;3.20;;
84757;SDS011;74981;52.476;16.656;2024-03-25T14:25:44;5.10;;;2.60;;
84757;SDS011;74981;52.476;16.656;2024-03-25T14:30:48;5.10;;;2.80;;
84757;SDS011;74981;52.476;16.656;2024-03-25T14:35:53;5.70;;;3.00;;
84757;SDS011;74981;52.476;16.656;2024-03-25T14:40:58;5.10;;;3.40;;
84757;SDS011;74981;52.476;16.656;2024-03-25T14:51:05;4.80;;;2.60;;
84757;SDS011;74981;52.476;16.656;2024-03-25T15:01:12;5.30;;;2.90;;
84757;SDS011;74981;52.476;16.656;2024-03-25T15:06:16;4.10;;;2.20;;
84757;SDS011;74981;52.476;16.656;2024-03-25T15:16:23;4.90;;;2.30;;
84757;SDS011;74981;52.476;16.656;2024-03-25T15:26:30;6.20;;;2.10;;
84757;SDS011;74981;52.476;16.656;2024-03-25T15:31:34;4.80;;;2.70;;
84757;SDS011;74981;52.476;16.656;2024-03-25T15:41:41;5.00;;;3.00;;
84757;SDS011;74981;52.476;16.656;2024-03-25T15:46:45;5.50;;;2.90;;
84757;SDS011;74981;52.476;16.656;2024-03-25T15:51:49;5.30;;;2.80;;
84757;SDS011;74981;52.476;16.656;2024-03-25T15:56:53;4.30;;;2.10;;
84757;SDS011;74981;52.476;16.656;2024-03-25T16:01:57;4.10;;;2.80;;
84757;SDS011;74981;52.476;16.656;2024-03-25T16:07:01;5.30;;;2.60;;
84757;SDS011;74981;52.476;16.656;2024-03-25T16:17:08;5.50;;;2.40;;
84757;SDS011;74981;52.476;16.656;2024-03-25T16:22:13;5.70;;;2.00;;
84757;SDS011;74981;52.476;16.656;2024-03-25T16:27:17;3.90;;;1.90;;
84757;SDS011;74981;52.476;16.656;2024-03-25T16:32:21;4.40;;;2.70;;
84757;SDS011;74981;52.476;16.656;2024-03-25T16:37:25;5.40;;;2.10;;
84757;SDS011;74981;52.476;16.656;2024-03-25T16:42:30;5.70;;;2.70;;
84757;SDS011;74981;52.476;16.656;2024-03-25T16:47:34;4.30;;;2.40;;
84757;SDS011;74981;52.476;16.656;2024-03-25T16:52:38;7.40;;;3.00;;
84757;SDS011;74981;52.476;16.656;2024-03-25T16:57:42;7.00;;;3.50;;
84757;SDS011;74981;52.476;16.656;2024-03-25T17:02:46;7.60;;;3.10;;
84757;SDS011;74981;52.476;16.656;2024-03-25T17:07:50;7.90;;;4.30;;
84757;SDS011;74981;52.476;16.656;2024-03-25T17:12:54;7.60;;;4.00;;
84757;SDS011;74981;52.476;16.656;2024-03-25T17:17:59;7.50;;;4.50;;
84757;SDS011;74981;52.476;16.656;2024-03-25T17:23:09;7.50;;;4.20;;
84757;SDS011;74981;52.476;16.656;2024-03-25T17:28:13;7.20;;;3.90;;
84757;SDS011;74981;52.476;16.656;2024-03-25T17:33:17;16.30;;;10.00;;
84757;SDS011;74981;52.476;16.656;2024-03-25T17:38:21;5.80;;;3.00;;
84757;SDS011;74981;52.476;16.656;2024-03-25T17:43:26;5.30;;;2.80;;
84757;SDS011;74981;52.476;16.656;2024-03-25T17:48:30;7.30;;;4.50;;
84757;SDS011;74981;52.476;16.656;2024-03-25T17:53:34;22.50;;;15.00;;
84757;SDS011;74981;52.476;16.656;2024-03-25T17:58:38;10.20;;;7.30;;
84757;SDS011;74981;52.476;16.656;2024-03-25T18:03:42;7.40;;;3.50;;
84757;SDS011;74981;52.476;16.656;2024-03-25T18:08:47;7.80;;;5.10;;
84757;SDS011;74981;52.476;16.656;2024-03-25T18:13:51;6.70;;;3.20;;
84757;SDS011;74981;52.476;16.656;2024-03-25T18:18:55;8.90;;;6.30;;
84757;SDS011;74981;52.476;16.656;2024-03-25T18:23:59;7.70;;;4.00;;
84757;SDS011;74981;52.476;16.656;2024-03-25T18:29:03;7.80;;;4.70;;
84757;SDS011;74981;52.476;16.656;2024-03-25T18:34:08;8.10;;;4.10;;
84757;SDS011;74981;52.476;16.656;2024-03-25T18:39:13;8.20;;;4.80;;
84757;SDS011;74981;52.476;16.656;2024-03-25T18:44:17;7.70;;;3.70;;
84757;SDS011;74981;52.476;16.656;2024-03-25T18:49:21;10.60;;;6.10;;
84757;SDS011;74981;52.476;16.656;2024-03-25T18:54:26;10.60;;;6.90;;
84757;SDS011;74981;52.476;16.656;2024-03-25T18:59:30;11.90;;;8.30;;
84757;SDS011;74981;52.476;16.656;2024-03-25T19:04:34;13.10;;;9.10;;
84757;SDS011;74981;52.476;16.656;2024-03-25T19:09:38;12.00;;;8.30;;
84757;SDS011;74981;52.476;16.656;2024-03-25T19:14:43;11.30;;;7.30;;
84757;SDS011;74981;52.476;16.656;2024-03-25T19:19:47;13.80;;;8.10;;
84757;SDS011;74981;52.476;16.656;2024-03-25T19:24:51;14.10;;;9.40;;
84757;SDS011;74981;52.476;16.656;2024-03-25T19:29:55;24.90;;;16.50;;
84757;SDS011;74981;52.476;16.656;2024-03-25T19:35:01;25.20;;;17.30;;
84757;SDS011;74981;52.476;16.656;2024-03-25T19:40:06;20.50;;;13.30;;
84757;SDS011;74981;52.476;16.656;2024-03-25T19:45:11;13.50;;;8.40;;
84757;SDS011;74981;52.476;16.656;2024-03-25T19:50:15;10.70;;;7.60;;
84757;SDS011;74981;52.476;16.656;2024-03-25T19:55:19;9.40;;;5.80;;
84757;SDS011;74981;52.476;16.656;2024-03-25T20:00:23;13.70;;;11.10;;
84757;SDS011;74981;52.476;16.656;2024-03-25T20:05:28;17.10;;;10.50;;
84757;SDS011;74981;52.476;16.656;2024-03-25T20:10:32;15.40;;;9.80;;
84757;SDS011;74981;52.476;16.656;2024-03-25T20:15:36;13.50;;;7.90;;
84757;SDS011;74981;52.476;16.656;2024-03-25T20:20:40;12.70;;;6.30;;
84757;SDS011;74981;52.476;16.656;2024-03-25T20:25:45;11.60;;;5.10;;
84757;SDS011;74981;52.476;16.656;2024-03-25T20:30:49;10.30;;;5.30;;
84757;SDS011;74981;52.476;16.656;2024-03-25T20:35:53;13.90;;;7.70;;
84757;SDS011;74981;52.476;16.656;2024-03-25T20:40:57;12.20;;;7.20;;
84757;SDS011;74981;52.476;16.656;2024-03-25T20:46:01;13.20;;;8.90;;
84757;SDS011;74981;52.476;16.656;2024-03-25T20:51:06;16.10;;;10.30;;
84757;SDS011;74981;52.476;16.656;2024-03-25T20:56:10;16.10;;;8.00;;
84757;SDS011;74981;52.476;16.656;2024-03-25T21:01:14;15.90;;;8.80;;
84757;SDS011;74981;52.476;16.656;2024-03-25T21:06:18;15.20;;;8.10;;
84757;SDS011;74981;52.476;16.656;2024-03-25T21:11:22;14.90;;;9.80;;
84757;SDS011;74981;52.476;16.656;2024-03-25T21:16:27;14.70;;;6.80;;
84757;SDS011;74981;52.476;16.656;2024-03-25T21:21:31;13.70;;;8.10;;
84757;SDS011;74981;52.476;16.656;2024-03-25T21:26:35;16.30;;;8.60;;
84757;SDS011;74981;52.476;16.656;2024-03-25T21:31:40;15.80;;;8.80;;
84757;SDS011;74981;52.476;16.656;2024-03-25T21:36:44;20.30;;;11.40;;
84757;SDS011;74981;52.476;16.656;2024-03-25T21:41:48;15.80;;;7.80;;
84757;SDS011;74981;52.476;16.656;2024-03-25T21:46:52;15.20;;;8.40;;
84757;SDS011;74981;52.476;16.656;2024-03-25T21:51:57;16.10;;;9.60;;
84757;SDS011;74981;52.476;16.656;2024-03-25T21:57:01;14.80;;;10.30;;
84757;SDS011;74981;52.476;16.656;2024-03-25T22:02:05;15.60;;;9.40;;
84757;SDS011;74981;52.476;16.656;2024-03-25T22:07:09;16.50;;;10.30;;
84757;SDS011;74981;52.476;16.656;2024-03-25T22:12:14;15.70;;;8.00;;
84757;SDS011;74981;52.476;16.656;2024-03-25T22:17:18;16.70;;;10.30;;
84757;SDS011;74981;52.476;16.656;2024-03-25T22:22:22;18.30;;;10.50;;
84757;SDS011;74981;52.476;16.656;2024-03-25T22:27:26;22.60;;;12.30;;
84757;SDS011;74981;52.476;16.656;2024-03-25T22:32:30;18.20;;;9.30;;
84757;SDS011;74981;52.476;16.656;2024-03-25T22:37:34;17.90;;;10.70;;
84757;SDS011;74981;52.476;16.656;2024-03-25T22:42:38;18.60;;;9.60;;
84757;SDS011;74981;52.476;16.656;2024-03-25T22:47:43;25.30;;;11.60;;
84757;SDS011;74981;52.476;16.656;2024-03-25T22:52:47;21.10;;;10.80;;
84757;SDS011;74981;52.476;16.656;2024-03-25T22:57:51;17.80;;;10.10;;
84757;SDS011;74981;52.476;16.656;2024-03-25T23:02:55;18.90;;;10.10;;
84757;SDS011;74981;52.476;16.656;2024-03-25T23:07:59;23.00;;;13.00;;
84757;SDS011;74981;52.476;16.656;2024-03-25T23:13:04;18.20;;;11.00;;
84757;SDS011;74981;52.476;16.656;2024-03-25T23:18:08;15.90;;;9.90;;
84757;SDS011;74981;52.476;16.656;2024-03-25T23:23:12;16.90;;;10.20;;
84757;SDS011;74981;52.476;16.656;2024-03-25T23:28:17;27.40;;;14.30;;
84757;SDS011;74981;52.476;16.656;2024-03-25T23:33:21;16.50;;;10.50;;
84757;SDS011;74981;52.476;16.656;2024-03-25T23:38:25;17.60;;;10.50;;
84757;SDS011;74981;52.476;16.656;2024-03-25T23:43:29;19.30;;;9.50;;
84757;SDS011;74981;52.476;16.656;2024-03-25T23:48:33;23.30;;;13.00;;
84757;SDS011;74981;52.476;16.656;2024-03-25T23:53:38;18.00;;;11.40;;
84757;SDS011;74981;52.476;16.656;2024-03-25T23:58:42;20.30;;;12.10;;
